createdAt,value
2022-12-22T00:01:14.127Z,15.10
2022-12-22T00:04:19.262Z,15.00
2022-12-22T00:07:25.130Z,15.00
2022-12-22T00:10:24.168Z,15.00
2022-12-22T00:13:30.156Z,15.10
2022-12-22T00:16:29.179Z,15.10
2022-12-22T00:19:39.157Z,15.10
2022-12-22T00:22:42.015Z,15.10
2022-12-22T00:25:48.168Z,15.10
2022-12-22T00:28:53.168Z,15.10
2022-12-22T00:31:58.140Z,15.10
2022-12-22T00:35:04.968Z,15.10
2022-12-22T00:38:10.140Z,15.20
2022-12-22T00:41:15.157Z,15.20
2022-12-22T00:44:21.370Z,15.20
2022-12-22T00:47:20.155Z,15.20
2022-12-22T00:50:19.351Z,15.20
2022-12-22T00:53:24.172Z,15.20
2022-12-22T00:56:32.281Z,15.20
2022-12-22T00:59:31.129Z,15.20
2022-12-22T01:02:37.312Z,15.20
2022-12-22T01:05:35.966Z,15.20
2022-12-22T01:08:41.169Z,15.20
2022-12-22T01:11:40.029Z,15.20
2022-12-22T01:14:46.150Z,15.20
2022-12-22T01:17:45.070Z,15.20
2022-12-22T01:20:51.137Z,15.30
2022-12-22T01:23:50.162Z,15.30
2022-12-22T01:26:56.162Z,15.30
2022-12-22T01:30:01.150Z,15.30
2022-12-22T01:33:07.150Z,15.30
2022-12-22T01:36:12.149Z,15.30
2022-12-22T01:39:18.063Z,15.30
2022-12-22T01:42:17.165Z,15.30
2022-12-22T01:45:29.424Z,15.30
2022-12-22T01:48:34.186Z,15.30
2022-12-22T01:51:43.190Z,15.30
2022-12-22T01:54:49.163Z,15.30
2022-12-22T01:58:02.136Z,15.30
2022-12-22T02:01:03.258Z,15.30
2022-12-22T02:04:11.158Z,15.30
2022-12-22T02:07:21.979Z,15.30
2022-12-22T02:10:31.142Z,15.30
2022-12-22T02:13:55.511Z,15.30
2022-12-22T02:17:19.147Z,15.40
2022-12-22T02:20:21.072Z,15.40
2022-12-22T02:23:46.162Z,15.40
2022-12-22T02:26:52.148Z,15.40
2022-12-22T02:29:56.156Z,15.40
2022-12-22T02:33:09.570Z,15.40
2022-12-22T02:36:27.138Z,15.40
2022-12-22T02:40:03.143Z,15.40
2022-12-22T02:43:10.749Z,15.40
2022-12-22T02:46:31.188Z,15.40
2022-12-22T02:49:58.004Z,15.40
2022-12-22T02:53:13.148Z,15.40
2022-12-22T02:56:27.205Z,15.40
2022-12-22T02:59:33.157Z,15.50
2022-12-22T03:02:40.328Z,15.50
2022-12-22T03:05:39.163Z,15.50
2022-12-22T03:08:51.168Z,15.50
2022-12-22T03:11:49.980Z,15.50
2022-12-22T03:14:54.154Z,15.50
2022-12-22T03:17:53.044Z,15.50
2022-12-22T03:20:58.163Z,15.50
2022-12-22T03:23:57.416Z,15.60
2022-12-22T03:26:45.144Z,15.60
2022-12-22T03:29:25.600Z,15.60
2022-12-22T03:32:12.151Z,15.60
2022-12-22T03:35:06.145Z,15.60
2022-12-22T03:37:46.624Z,15.60
2022-12-22T03:40:33.156Z,15.60
2022-12-22T03:43:33.719Z,15.60
2022-12-22T03:46:38.199Z,15.60
2022-12-22T03:49:26.167Z,15.60
2022-12-22T03:52:06.205Z,15.60
2022-12-22T03:54:53.138Z,15.60
2022-12-22T03:57:33.213Z,15.60
2022-12-22T04:00:21.144Z,15.60
2022-12-22T04:03:01.295Z,15.60
2022-12-22T04:05:48.191Z,15.60
2022-12-22T04:08:28.220Z,15.70
2022-12-22T04:11:37.153Z,15.70
2022-12-22T04:14:17.237Z,15.70
2022-12-22T04:17:04.153Z,15.70
2022-12-22T04:19:44.212Z,15.70
2022-12-22T04:22:32.165Z,15.70
2022-12-22T04:25:13.204Z,15.70
2022-12-22T04:28:00.145Z,15.70
2022-12-22T04:30:40.226Z,15.70
2022-12-22T04:33:27.147Z,15.70
2022-12-22T04:36:14.188Z,15.70
2022-12-22T04:38:54.634Z,15.70
2022-12-22T04:41:41.159Z,15.60
2022-12-22T04:44:21.637Z,15.70
2022-12-22T04:47:08.144Z,15.70
2022-12-22T04:49:48.722Z,15.70
2022-12-22T04:52:35.147Z,15.70
2022-12-22T04:55:22.160Z,15.70
2022-12-22T04:58:02.220Z,15.70
2022-12-22T05:00:49.241Z,15.70
2022-12-22T05:03:30.322Z,15.70
2022-12-22T05:06:17.190Z,15.70
2022-12-22T05:08:57.197Z,15.70
2022-12-22T05:11:45.168Z,15.70
2022-12-22T05:14:25.205Z,15.70
2022-12-22T05:17:12.210Z,15.70
2022-12-22T05:19:59.150Z,15.70
2022-12-22T05:22:39.705Z,15.70
2022-12-22T05:25:29.821Z,15.80
2022-12-22T05:28:13.679Z,15.80
2022-12-22T05:31:00.219Z,15.80
2022-12-22T05:33:40.679Z,15.80
2022-12-22T05:36:27.161Z,15.80
2022-12-22T05:39:07.956Z,15.80
2022-12-22T05:41:54.156Z,15.80
2022-12-22T05:44:41.201Z,15.80
2022-12-22T05:47:21.179Z,15.80
2022-12-22T05:50:01.827Z,15.70
2022-12-22T05:52:48.149Z,15.70
2022-12-22T05:55:28.785Z,15.70
2022-12-22T05:58:15.146Z,15.60
2022-12-22T06:00:59.717Z,15.60
2022-12-22T06:03:46.329Z,15.50
2022-12-22T06:06:33.220Z,15.50
2022-12-22T06:09:13.140Z,15.50
2022-12-22T06:11:53.633Z,15.50
2022-12-22T06:14:40.160Z,15.50
2022-12-22T06:17:27.338Z,15.50
2022-12-22T06:20:07.160Z,15.50
2022-12-22T06:22:54.152Z,15.60
2022-12-22T06:25:34.213Z,15.60
2022-12-22T06:28:21.140Z,15.60
2022-12-22T06:31:02.341Z,15.60
2022-12-22T06:33:49.159Z,15.60
2022-12-22T06:36:29.207Z,15.60
2022-12-22T06:39:16.164Z,15.60
2022-12-22T06:42:21.168Z,15.50
2022-12-22T06:45:08.173Z,15.50
2022-12-22T06:47:48.209Z,15.50
2022-12-22T06:50:35.151Z,15.50
2022-12-22T06:53:16.251Z,15.40
2022-12-22T06:56:03.172Z,15.30
2022-12-22T06:58:43.233Z,15.30
2022-12-22T07:01:31.405Z,15.30
2022-12-22T07:04:11.410Z,15.30
2022-12-22T07:06:58.158Z,15.20
2022-12-22T07:09:45.159Z,15.30
2022-12-22T07:12:40.167Z,15.20
2022-12-22T07:15:27.144Z,15.20
2022-12-22T07:18:07.221Z,15.30
2022-12-22T07:20:54.169Z,15.30
2022-12-22T07:23:34.210Z,15.30
2022-12-22T07:26:22.158Z,15.30
2022-12-22T07:29:02.240Z,15.30
2022-12-22T07:31:49.221Z,15.20
2022-12-22T07:34:29.229Z,15.20
2022-12-22T07:37:16.186Z,15.20
2022-12-22T07:40:03.168Z,15.30
2022-12-22T07:42:53.163Z,15.30
2022-12-22T07:45:34.504Z,15.30
2022-12-22T07:48:41.147Z,15.30
2022-12-22T07:51:21.227Z,15.20
2022-12-22T07:54:11.130Z,15.20
2022-12-22T07:56:52.235Z,15.20
2022-12-22T07:59:39.190Z,15.20
2022-12-22T08:02:19.325Z,15.20
2022-12-22T08:05:06.238Z,15.10
2022-12-22T08:07:55.208Z,15.10
2022-12-22T08:10:35.180Z,15.00
2022-12-22T08:13:15.946Z,15.00
2022-12-22T08:16:02.193Z,15.00
2022-12-22T08:18:49.596Z,15.00
2022-12-22T08:21:29.151Z,15.00
2022-12-22T08:24:16.246Z,15.00
2022-12-22T08:27:00.184Z,15.00
2022-12-22T08:29:58.355Z,15.00
2022-12-22T08:32:38.198Z,15.00
2022-12-22T08:35:19.661Z,15.10
2022-12-22T08:38:06.180Z,15.20
2022-12-22T08:40:48.449Z,15.20
2022-12-22T08:43:35.174Z,15.20
2022-12-22T08:46:15.640Z,15.30
2022-12-22T08:49:02.198Z,15.20
2022-12-22T08:51:42.942Z,15.20
2022-12-22T08:54:30.143Z,15.30
2022-12-22T08:57:17.179Z,15.30
2022-12-22T08:59:57.204Z,15.20
2022-12-22T09:02:45.295Z,15.30
2022-12-22T09:05:26.243Z,15.30
2022-12-22T09:08:13.172Z,15.30
2022-12-22T09:10:53.227Z,15.30
2022-12-22T09:13:40.159Z,15.30
2022-12-22T09:16:20.300Z,15.30
2022-12-22T09:19:08.166Z,15.30
2022-12-22T09:21:48.242Z,15.30
2022-12-22T09:24:35.181Z,15.30
2022-12-22T09:27:22.157Z,15.30
2022-12-22T09:30:02.757Z,15.30
2022-12-22T09:32:49.145Z,15.30
2022-12-22T09:35:36.171Z,15.40
2022-12-22T09:38:16.210Z,15.40
2022-12-22T09:41:04.183Z,15.40
2022-12-22T09:43:44.237Z,15.40
2022-12-22T09:46:38.146Z,15.40
2022-12-22T09:49:29.168Z,15.50
2022-12-22T09:52:40.184Z,15.60
2022-12-22T09:55:51.183Z,15.80
2022-12-22T09:58:34.532Z,15.90
2022-12-22T10:01:54.337Z,16.10
2022-12-22T10:04:59.161Z,16.30
2022-12-22T10:07:46.233Z,16.40
2022-12-22T10:10:34.149Z,16.50
2022-12-22T10:13:18.313Z,16.50
2022-12-22T10:16:05.171Z,16.60
2022-12-22T10:19:21.248Z,16.70
2022-12-22T10:22:08.185Z,16.70
2022-12-22T10:24:55.151Z,16.80
2022-12-22T10:27:51.333Z,16.80
2022-12-22T10:30:44.175Z,16.80
2022-12-22T10:33:25.230Z,16.80
2022-12-22T10:36:13.169Z,16.80
2022-12-22T10:39:14.168Z,16.70
2022-12-22T10:41:59.940Z,16.70
2022-12-22T10:44:48.184Z,16.80
2022-12-22T10:47:35.181Z,16.80
2022-12-22T10:50:16.319Z,16.80
2022-12-22T10:53:05.176Z,16.80
2022-12-22T10:55:45.214Z,16.80
2022-12-22T10:58:32.153Z,16.80
2022-12-22T11:01:12.231Z,16.80
2022-12-22T11:03:59.180Z,16.90
2022-12-22T11:06:39.238Z,16.90
2022-12-22T11:09:34.968Z,16.90
2022-12-22T11:12:54.224Z,17.00
2022-12-22T11:15:53.958Z,17.00
2022-12-22T11:19:13.190Z,17.10
2022-12-22T11:22:18.171Z,17.10
2022-12-22T11:25:29.291Z,17.10
2022-12-22T11:28:44.185Z,17.10
2022-12-22T11:32:15.193Z,17.10
2022-12-22T11:35:22.499Z,17.10
2022-12-22T11:38:27.331Z,17.10
2022-12-22T11:41:51.305Z,17.10
2022-12-22T11:44:57.173Z,17.20
2022-12-22T11:48:11.175Z,17.20
2022-12-22T11:51:14.032Z,17.20
2022-12-22T11:54:24.349Z,17.30
2022-12-22T11:57:56.225Z,17.30
2022-12-22T12:01:14.868Z,17.40
2022-12-22T12:04:35.212Z,17.40
2022-12-22T12:07:45.230Z,17.50
2022-12-22T12:10:39.187Z,17.70
2022-12-22T12:14:02.548Z,17.70
2022-12-22T12:16:58.190Z,17.70
2022-12-22T12:20:15.169Z,17.60
2022-12-22T12:23:56.298Z,17.70
2022-12-22T12:27:13.183Z,17.60
2022-12-22T12:30:36.939Z,17.60
2022-12-22T12:33:25.190Z,17.60
2022-12-22T12:36:19.166Z,17.50
2022-12-22T12:39:14.654Z,17.50
2022-12-22T12:42:25.179Z,17.50
2022-12-22T12:45:52.181Z,17.50
2022-12-22T12:48:40.291Z,17.40
2022-12-22T12:51:56.175Z,17.40
2022-12-22T12:54:43.170Z,17.30
2022-12-22T12:57:23.280Z,17.30
2022-12-22T13:00:12.170Z,17.30
2022-12-22T13:02:58.027Z,17.30
2022-12-22T13:06:08.190Z,17.20
2022-12-22T13:09:22.288Z,17.20
2022-12-22T13:12:14.462Z,17.20
2022-12-22T13:15:05.183Z,17.20
2022-12-22T13:17:54.294Z,17.10
2022-12-22T13:20:42.184Z,17.10
2022-12-22T13:23:22.242Z,17.10
2022-12-22T13:26:29.162Z,17.10
2022-12-22T13:29:33.257Z,17.10
2022-12-22T13:32:26.190Z,17.00
2022-12-22T13:35:39.929Z,17.00
2022-12-22T13:38:37.183Z,17.00
2022-12-22T13:41:28.323Z,16.90
2022-12-22T13:44:21.172Z,16.90
2022-12-22T13:47:10.312Z,16.90
2022-12-22T13:50:08.472Z,16.80
2022-12-22T13:52:56.175Z,16.80
2022-12-22T13:55:44.252Z,16.80
2022-12-22T13:58:51.178Z,16.70
2022-12-22T14:01:38.460Z,16.70
2022-12-22T14:04:20.248Z,16.60
2022-12-22T14:07:33.181Z,16.70
2022-12-22T14:10:13.657Z,16.60
2022-12-22T14:13:01.196Z,16.60
2022-12-22T14:15:49.814Z,16.60
2022-12-22T14:18:32.173Z,16.60
2022-12-22T14:21:19.199Z,16.60
2022-12-22T14:24:07.196Z,16.50
2022-12-22T14:26:48.330Z,16.50
2022-12-22T14:29:38.188Z,16.50
2022-12-22T14:32:44.967Z,16.50
2022-12-22T14:35:34.185Z,16.50
2022-12-22T14:38:23.058Z,16.50
2022-12-22T14:41:10.208Z,16.40
2022-12-22T14:43:57.181Z,16.40
2022-12-22T14:46:45.281Z,16.40
2022-12-22T14:49:26.788Z,16.40
2022-12-22T14:52:19.250Z,16.40
2022-12-22T14:55:07.291Z,16.40
2022-12-22T14:57:49.184Z,16.40
2022-12-22T15:00:41.284Z,16.30
2022-12-22T15:03:41.262Z,16.30
2022-12-22T15:06:35.239Z,16.30
2022-12-22T15:10:13.864Z,16.30
2022-12-22T15:12:45.235Z,16.30
2022-12-22T15:15:28.304Z,16.30
2022-12-22T15:18:21.184Z,16.30
2022-12-22T15:21:10.196Z,16.30
2022-12-22T15:23:57.209Z,16.30
2022-12-22T15:26:38.073Z,16.30
2022-12-22T15:29:25.225Z,16.30
2022-12-22T15:32:05.774Z,16.30
2022-12-22T15:34:52.192Z,16.30
2022-12-22T15:37:39.197Z,16.30
2022-12-22T15:40:31.355Z,16.30
2022-12-22T15:43:28.770Z,16.30
2022-12-22T15:46:22.435Z,16.30
2022-12-22T15:49:02.213Z,16.30
2022-12-22T15:51:51.217Z,16.30
2022-12-22T15:54:40.194Z,16.30
2022-12-22T15:57:27.205Z,16.30
2022-12-22T16:00:14.209Z,16.30
2022-12-22T16:02:54.887Z,16.30
2022-12-22T16:05:41.233Z,16.30
2022-12-22T16:08:45.206Z,16.30
2022-12-22T16:11:25.733Z,16.30
2022-12-22T16:14:14.207Z,16.30
2022-12-22T16:17:08.195Z,16.30
2022-12-22T16:19:55.267Z,16.30
2022-12-22T16:22:41.190Z,16.20
2022-12-22T16:25:27.217Z,16.30
2022-12-22T16:28:15.206Z,16.30
2022-12-22T16:30:55.854Z,16.30
2022-12-22T16:33:44.209Z,16.30
2022-12-22T16:36:31.304Z,16.30
2022-12-22T16:39:11.219Z,16.30
2022-12-22T16:41:59.568Z,16.30
2022-12-22T16:47:44.210Z,16.30
2022-12-22T16:50:33.117Z,16.30
2022-12-22T16:53:23.205Z,16.20
2022-12-22T16:56:05.262Z,16.20
2022-12-22T16:58:53.208Z,16.20
2022-12-22T17:01:56.393Z,16.20
2022-12-22T17:04:43.197Z,16.20
2022-12-22T17:07:37.181Z,16.20
2022-12-22T17:10:26.196Z,16.20
2022-12-22T17:13:07.260Z,16.20
2022-12-22T17:15:54.247Z,16.20
2022-12-22T17:18:35.270Z,16.20
2022-12-22T17:21:24.195Z,16.20
2022-12-22T17:24:06.297Z,16.20
2022-12-22T17:26:53.201Z,16.20
2022-12-22T17:29:35.129Z,16.20
2022-12-22T17:32:23.184Z,16.20
2022-12-22T17:35:10.199Z,16.10
2022-12-22T17:37:58.223Z,16.10
2022-12-22T17:40:38.331Z,16.20
2022-12-22T17:43:27.199Z,16.20
2022-12-22T17:46:07.357Z,16.20
2022-12-22T17:48:55.231Z,16.20
2022-12-22T17:51:36.315Z,16.20
2022-12-22T17:54:32.192Z,16.20
2022-12-22T17:57:17.664Z,16.10
2022-12-22T18:00:04.202Z,16.00
2022-12-22T18:02:52.375Z,15.90
2022-12-22T18:05:46.251Z,15.80
2022-12-22T18:08:33.222Z,15.80
2022-12-22T18:11:13.579Z,15.70
2022-12-22T18:14:01.205Z,15.70
2022-12-22T18:16:49.373Z,15.70
2022-12-22T18:19:36.199Z,15.60
2022-12-22T18:22:26.258Z,15.60
2022-12-22T18:25:29.203Z,15.60
2022-12-22T18:28:16.227Z,15.60
2022-12-22T18:31:03.322Z,15.60
2022-12-22T18:33:43.218Z,15.50
2022-12-22T18:36:36.213Z,15.50
2022-12-22T18:39:31.191Z,15.50
2022-12-22T18:42:30.261Z,15.50
2022-12-22T18:45:10.197Z,15.50
2022-12-22T18:47:57.383Z,15.50
2022-12-22T18:50:39.264Z,15.50
2022-12-22T18:53:38.188Z,15.50
2022-12-22T18:56:20.267Z,15.50
2022-12-22T18:59:07.239Z,15.40
2022-12-22T19:01:47.396Z,15.40
2022-12-22T19:04:34.210Z,15.40
2022-12-22T19:07:29.222Z,15.40
2022-12-22T19:10:28.206Z,15.40
2022-12-22T19:13:10.247Z,15.40
2022-12-22T19:15:58.274Z,15.40
2022-12-22T19:18:45.211Z,15.30
2022-12-22T19:21:25.840Z,15.30
2022-12-22T19:24:12.203Z,15.30
2022-12-22T19:26:52.720Z,15.30
2022-12-22T19:29:39.207Z,15.30
2022-12-22T19:32:32.485Z,15.30
2022-12-22T19:35:25.202Z,15.20
2022-12-22T19:38:26.853Z,15.20
2022-12-22T19:41:09.207Z,15.20
2022-12-22T19:43:56.369Z,15.20
2022-12-22T19:46:40.224Z,15.10
2022-12-22T19:49:33.197Z,15.20
2022-12-22T19:52:23.176Z,15.10
2022-12-22T19:55:03.958Z,15.20
2022-12-22T19:57:50.224Z,15.10
2022-12-22T20:00:30.778Z,15.10
2022-12-22T20:03:19.296Z,15.10
2022-12-22T20:05:59.857Z,15.10
2022-12-22T20:08:46.222Z,15.10
2022-12-22T20:11:33.369Z,15.10
2022-12-22T20:14:13.271Z,15.10
2022-12-22T20:17:00.233Z,15.10
2022-12-22T20:19:40.271Z,15.00
2022-12-22T20:22:29.361Z,15.10
2022-12-22T20:25:17.232Z,15.00
2022-12-22T20:28:04.284Z,15.00
2022-12-22T20:30:44.210Z,15.00
2022-12-22T20:33:26.518Z,15.00
2022-12-22T20:36:19.116Z,15.00
2022-12-22T20:39:08.229Z,15.00
2022-12-22T20:41:55.198Z,15.00
2022-12-22T20:44:35.262Z,15.10
2022-12-22T20:47:23.225Z,15.10
2022-12-22T20:50:03.257Z,15.10
2022-12-22T20:52:50.212Z,15.10
2022-12-22T20:55:33.271Z,15.10
2022-12-22T20:58:29.217Z,15.10
2022-12-22T21:01:09.334Z,15.10
2022-12-22T21:03:57.261Z,15.10
2022-12-22T21:06:43.250Z,15.10
2022-12-22T21:09:30.189Z,15.10
2022-12-22T21:12:10.273Z,15.10
2022-12-22T21:14:58.213Z,15.10
2022-12-22T21:17:46.377Z,15.10
2022-12-22T21:20:35.338Z,15.10
2022-12-22T21:23:15.220Z,15.10
2022-12-22T21:25:55.838Z,15.20
2022-12-22T21:28:48.210Z,15.10
2022-12-22T21:31:36.219Z,15.20
2022-12-22T21:34:23.144Z,15.10
2022-12-22T21:37:10.239Z,15.10
2022-12-22T21:39:50.282Z,15.10
2022-12-22T21:42:37.215Z,15.10
2022-12-22T21:45:22.277Z,15.10
2022-12-22T21:48:09.221Z,15.10
2022-12-22T21:50:50.292Z,15.10
2022-12-22T21:53:37.203Z,15.10
2022-12-22T21:56:31.217Z,15.10
2022-12-22T21:59:11.759Z,15.20
2022-12-22T22:01:59.408Z,15.20
2022-12-22T22:04:39.686Z,15.20
2022-12-22T22:07:26.213Z,15.20
2022-12-22T22:10:17.267Z,15.20
2022-12-22T22:12:58.239Z,15.20
2022-12-22T22:15:38.923Z,15.20
2022-12-22T22:18:33.245Z,15.20
2022-12-22T22:21:15.905Z,15.20
2022-12-22T22:24:02.214Z,15.20
2022-12-22T22:26:45.778Z,15.30
2022-12-22T22:29:32.232Z,15.30
2022-12-22T22:32:19.408Z,15.30
2022-12-22T22:34:59.226Z,15.30
2022-12-22T22:37:40.901Z,15.30
2022-12-22T22:40:28.223Z,15.30
2022-12-22T22:43:08.801Z,15.40
2022-12-22T22:45:56.297Z,15.30
2022-12-22T22:48:37.258Z,15.40
2022-12-22T22:51:24.212Z,15.30
2022-12-22T22:54:04.806Z,15.30
2022-12-22T22:56:51.222Z,15.40
2022-12-22T22:59:53.217Z,15.40
2022-12-22T23:02:40.492Z,15.30
2022-12-22T23:05:22.871Z,15.40
2022-12-22T23:08:16.210Z,15.40
2022-12-22T23:11:04.228Z,15.40
2022-12-22T23:13:45.347Z,15.40
2022-12-22T23:16:37.638Z,15.40
2022-12-22T23:19:18.305Z,15.40
2022-12-22T23:22:05.233Z,15.40
2022-12-22T23:24:45.265Z,15.40
2022-12-22T23:27:32.248Z,15.40
2022-12-22T23:30:13.287Z,15.40
2022-12-22T23:33:01.220Z,15.40
2022-12-22T23:35:45.280Z,15.40
2022-12-22T23:38:32.223Z,15.40
2022-12-22T23:41:19.269Z,15.40
2022-12-22T23:44:06.208Z,15.40
2022-12-22T23:46:54.255Z,15.50
2022-12-22T23:49:41.304Z,15.50
2022-12-22T23:52:21.212Z,15.50
2022-12-22T23:55:08.354Z,15.50
2022-12-22T23:57:48.209Z,15.50
